Terminal Aerodrome Forecast
Issued by NWS Wakefield, VA

Home | Current Version | Previous Version | Text Only | Print | Product List | Glossary On
Versions: 1 2 3 4 5 6 7 8 9 10 11 12 13 14
000
FTUS41 KAKQ 180539
TAFECG
TAF
KECG 180539Z 1806/1906 19004KT P6SM BKN250
     FM180800 22003KT 4SM BR BKN100
     FM181300 02007KT P6SM SCT100 BKN250
     FM181800 06009KT P6SM BKN050 BKN250=

USA.gov is the U.S. government's official web portal to all federal, state and local government web resources and services.